createdAt,value
2023-05-14T00:00:04.672Z,100792.97
2023-05-14T00:02:31.388Z,100782.88
2023-05-14T00:04:58.020Z,100786.03
2023-05-14T00:07:30.819Z,100785.22
2023-05-14T00:09:58.880Z,100782.66
2023-05-14T00:12:26.689Z,100784.78
2023-05-14T00:14:54.217Z,100774.69
2023-05-14T00:17:21.010Z,100774.69
2023-05-14T00:19:47.936Z,100771.34
2023-05-14T00:22:14.635Z,100771.16
2023-05-14T00:24:41.389Z,100765.03
2023-05-14T00:27:08.052Z,100766.94
2023-05-14T00:29:35.117Z,100758.50
2023-05-14T00:32:03.876Z,100756.63
2023-05-14T00:34:30.523Z,100750.13
2023-05-14T00:36:57.183Z,100752.03
2023-05-14T00:39:23.783Z,100747.81
2023-05-14T00:41:50.508Z,100744.44
2023-05-14T00:44:17.180Z,100736.91
2023-05-14T00:46:43.922Z,100741.50
2023-05-14T00:49:10.975Z,100731.63
2023-05-14T00:51:38.145Z,100730.81
2023-05-14T00:54:05.082Z,100730.81
2023-05-14T00:56:31.938Z,100727.00
2023-05-14T00:58:58.798Z,100720.91
2023-05-14T01:01:28.603Z,100717.16
2023-05-14T01:03:57.986Z,100720.50
2023-05-14T01:06:37.100Z,100723.22
2023-05-14T01:09:25.406Z,100725.53
2023-05-14T01:12:06.698Z,100714.81
2023-05-14T01:14:55.652Z,100712.28
2023-05-14T01:17:24.711Z,100716.03
2023-05-14T01:19:52.345Z,100700.09
2023-05-14T01:22:18.971Z,100702.00
2023-05-14T01:24:45.733Z,100703.25
2023-05-14T01:27:29.805Z,100698.63
2023-05-14T01:30:09.916Z,100695.03
2023-05-14T01:32:39.158Z,100702.19
2023-05-14T01:35:08.093Z,100694.22
2023-05-14T01:37:35.935Z,100696.50
2023-05-14T01:40:03.598Z,100701.56
2023-05-14T01:42:30.467Z,100698.00
2023-05-14T01:44:57.576Z,100685.56
2023-05-14T01:47:24.262Z,100685.13
2023-05-14T01:49:51.071Z,100689.75
2023-05-14T01:52:21.036Z,100682.22
2023-05-14T01:54:50.330Z,100694.81
2023-05-14T01:57:16.981Z,100685.34
2023-05-14T01:59:43.780Z,100675.50
2023-05-14T02:02:10.462Z,100671.28
2023-05-14T02:04:37.088Z,100675.50
2023-05-14T02:07:03.746Z,100674.63
2023-05-14T02:09:30.813Z,100670.00
2023-05-14T02:11:57.590Z,100669.59
2023-05-14T02:14:24.236Z,100675.69
2023-05-14T02:16:51.400Z,100663.72
2023-05-14T02:19:18.272Z,100672.34
2023-05-14T02:21:44.891Z,100669.19
2023-05-14T02:24:11.511Z,100670.44
2023-05-14T02:26:38.206Z,100662.66
2023-05-14T02:29:04.948Z,100654.91
2023-05-14T02:31:31.651Z,100663.69
2023-05-14T02:33:58.257Z,100659.72
2023-05-14T02:36:24.941Z,100653.84
2023-05-14T02:38:51.573Z,100651.72
2023-05-14T02:41:18.309Z,100644.59
2023-05-14T02:43:44.990Z,100634.75
2023-05-14T02:46:11.626Z,100638.31
2023-05-14T02:48:38.213Z,100632.88
2023-05-14T02:51:04.878Z,100624.91
2023-05-14T02:53:31.505Z,100630.53
2023-05-14T02:55:58.179Z,100629.06
2023-05-14T02:58:25.472Z,100631.38
2023-05-14T03:00:55.402Z,100624.88
2023-05-14T03:03:22.567Z,100628.03
2023-05-14T03:05:49.752Z,100619.41
2023-05-14T03:08:16.391Z,100622.97
2023-05-14T03:10:43.047Z,100617.09
2023-05-14T03:13:09.684Z,100617.72
2023-05-14T03:15:36.344Z,100615.56
2023-05-14T03:18:03.029Z,100607.22
2023-05-14T03:20:29.713Z,100597.72
2023-05-14T03:22:56.746Z,100604.84
2023-05-14T03:25:23.479Z,100593.38
2023-05-14T03:27:50.158Z,100594.78
2023-05-14T03:30:16.811Z,100592.50
2023-05-14T03:32:43.817Z,100585.78
2023-05-14T03:35:10.641Z,100591.28
2023-05-14T03:37:37.366Z,100584.56
2023-05-14T03:40:04.473Z,100586.47
2023-05-14T03:42:31.103Z,100591.47
2023-05-14T03:44:57.773Z,100591.91
2023-05-14T03:47:24.478Z,100590.59
2023-05-14T03:49:52.365Z,100591.84
2023-05-14T03:52:18.971Z,100586.59
2023-05-14T03:54:45.654Z,100577.38
2023-05-14T03:57:12.227Z,100572.09
2023-05-14T03:59:38.959Z,100568.13
2023-05-14T04:02:05.604Z,100569.16
2023-05-14T04:04:32.361Z,100576.09
2023-05-14T04:06:59.012Z,100574.66
2023-05-14T04:09:25.752Z,100568.16
2023-05-14T04:11:52.365Z,100560.25
2023-05-14T04:14:19.051Z,100561.06
2023-05-14T04:16:45.733Z,100561.03
2023-05-14T04:19:12.572Z,100565.94
2023-05-14T04:21:39.444Z,100564.66
2023-05-14T04:24:06.660Z,100569.09
2023-05-14T04:26:33.390Z,100563.91
2023-05-14T04:29:02.949Z,100563.50
2023-05-14T04:31:30.440Z,100560.56
2023-05-14T04:33:57.116Z,100563.91
2023-05-14T04:36:23.748Z,100557.22
2023-05-14T04:38:50.766Z,100558.47
2023-05-14T04:41:17.472Z,100552.59
2023-05-14T04:43:44.080Z,100553.41
2023-05-14T04:46:11.667Z,100555.50
2023-05-14T04:48:38.469Z,100556.75
2023-05-14T04:51:06.917Z,100553.59
2023-05-14T04:53:33.902Z,100551.50
2023-05-14T04:56:00.501Z,100547.50
2023-05-14T04:58:29.210Z,100552.53
2023-05-14T05:00:55.852Z,100552.09
2023-05-14T05:03:22.581Z,100544.53
2023-05-14T05:05:49.311Z,100541.75
2023-05-14T05:08:15.965Z,100546.81
2023-05-14T05:10:42.625Z,100544.03
2023-05-14T05:13:09.214Z,100544.03
2023-05-14T05:15:36.132Z,100539.59
2023-05-14T05:18:02.791Z,100535.00
2023-05-14T05:20:29.434Z,100528.03
2023-05-14T05:22:56.203Z,100531.81
2023-05-14T05:25:22.805Z,100532.66
2023-05-14T05:27:49.473Z,100544.16
2023-05-14T05:30:16.215Z,100536.81
2023-05-14T05:32:43.039Z,100534.84
2023-05-14T05:35:10.058Z,100523.69
2023-05-14T05:37:36.748Z,100526.81
2023-05-14T05:40:04.470Z,100519.03
2023-05-14T05:42:31.099Z,100521.94
2023-05-14T05:44:57.714Z,100523.16
2023-05-14T05:47:24.392Z,100527.72
2023-05-14T05:49:50.992Z,100517.97
2023-05-14T05:52:17.722Z,100523.84
2023-05-14T05:54:44.391Z,100526.75
2023-05-14T05:57:11.253Z,100534.31
2023-05-14T05:59:38.043Z,100527.50
2023-05-14T06:02:04.967Z,100522.16
2023-05-14T06:04:31.645Z,100519.66
2023-05-14T06:06:58.377Z,100523.19
2023-05-14T06:09:25.100Z,100521.00
2023-05-14T06:11:51.702Z,100521.06
2023-05-14T06:14:18.577Z,100529.44
2023-05-14T06:16:45.398Z,100527.63
2023-05-14T06:19:12.128Z,100520.09
2023-05-14T06:21:38.951Z,100519.25
2023-05-14T06:24:05.848Z,100519.53
2023-05-14T06:26:32.575Z,100522.41
2023-05-14T06:28:59.381Z,100513.88
2023-05-14T06:31:26.435Z,100507.00
2023-05-14T06:33:53.097Z,100501.13
2023-05-14T06:36:19.679Z,100501.44
2023-05-14T06:38:46.330Z,100501.22
2023-05-14T06:41:12.970Z,100498.25
2023-05-14T06:43:39.645Z,100491.09
2023-05-14T06:46:07.127Z,100493.50
2023-05-14T06:48:33.747Z,100486.59
2023-05-14T06:51:00.418Z,100485.25
2023-05-14T06:53:27.052Z,100489.09
2023-05-14T06:55:53.687Z,100488.63
2023-05-14T06:58:20.393Z,100494.09
2023-05-14T07:00:49.016Z,100484.75
2023-05-14T07:03:15.710Z,100481.38
2023-05-14T07:05:42.378Z,100476.13
2023-05-14T07:08:09.110Z,100469.00
2023-05-14T07:10:35.840Z,100469.56
2023-05-14T07:13:03.436Z,100474.06
2023-05-14T07:15:30.035Z,100470.56
2023-05-14T07:17:56.824Z,100480.47
2023-05-14T07:20:24.302Z,100466.25
2023-05-14T07:22:55.338Z,100461.34
2023-05-14T07:25:21.992Z,100462.34
2023-05-14T07:27:48.657Z,100459.94
2023-05-14T07:30:15.315Z,100459.38
2023-05-14T07:32:42.341Z,100459.28
2023-05-14T07:35:09.704Z,100465.00
2023-05-14T07:37:36.456Z,100463.69
2023-05-14T07:40:03.595Z,100473.88
2023-05-14T07:42:36.452Z,100468.78
2023-05-14T07:45:04.686Z,100463.72
2023-05-14T07:47:31.540Z,100468.53
2023-05-14T07:49:58.321Z,100469.44
2023-05-14T07:52:25.319Z,100462.84
2023-05-14T07:54:52.529Z,100459.69
2023-05-14T07:57:20.086Z,100458.38
2023-05-14T07:59:47.820Z,100451.84
2023-05-14T08:02:16.068Z,100454.91
2023-05-14T08:04:42.917Z,100451.91
2023-05-14T08:07:09.693Z,100457.50
2023-05-14T08:09:36.615Z,100455.78
2023-05-14T08:12:03.585Z,100457.47
2023-05-14T08:14:30.235Z,100460.22
2023-05-14T08:16:56.951Z,100453.75
2023-05-14T08:19:24.459Z,100453.56
2023-05-14T08:21:51.499Z,100452.91
2023-05-14T08:24:19.054Z,100441.38
2023-05-14T08:26:45.725Z,100442.69
2023-05-14T08:29:13.983Z,100436.28
2023-05-14T08:31:42.318Z,100432.75
2023-05-14T08:34:09.036Z,100435.69
2023-05-14T08:36:35.653Z,100433.53
2023-05-14T08:39:02.404Z,100428.63
2023-05-14T08:41:29.164Z,100427.94
2023-05-14T08:44:20.522Z,100429.75
2023-05-14T08:46:49.908Z,100425.41
2023-05-14T08:49:30.461Z,100419.72
2023-05-14T08:51:58.158Z,100421.97
2023-05-14T08:54:26.453Z,100412.69
2023-05-14T08:56:53.394Z,100410.06
2023-05-14T08:59:20.984Z,100413.44
2023-05-14T09:01:51.807Z,100407.63
2023-05-14T09:04:22.477Z,100405.22
2023-05-14T09:06:51.020Z,100406.16
2023-05-14T09:09:18.866Z,100401.00
2023-05-14T09:11:50.773Z,100403.25
2023-05-14T09:14:17.981Z,100394.97
2023-05-14T09:16:49.921Z,100387.81
2023-05-14T09:19:19.399Z,100387.81
2023-05-14T09:21:48.686Z,100382.88
2023-05-14T09:24:29.750Z,100385.66
2023-05-14T09:26:58.374Z,100391.75
2023-05-14T09:29:28.482Z,100391.22
2023-05-14T09:31:57.374Z,100376.56
2023-05-14T09:34:26.250Z,100371.31
2023-05-14T09:37:01.357Z,100381.28
2023-05-14T09:39:29.221Z,100379.09
2023-05-14T09:41:56.422Z,100380.47
2023-05-14T09:44:24.117Z,100389.59
2023-05-14T09:46:51.551Z,100381.84
2023-05-14T09:49:18.548Z,100393.44
2023-05-14T09:51:45.155Z,100394.00
2023-05-14T09:54:11.996Z,100386.25
2023-05-14T09:56:39.672Z,100382.88
2023-05-14T09:59:06.504Z,100387.34
2023-05-14T10:01:33.656Z,100375.69
2023-05-14T10:04:03.827Z,100371.50
2023-05-14T10:06:33.455Z,100368.19
2023-05-14T10:09:12.705Z,100375.66
2023-05-14T10:11:43.839Z,100364.56
2023-05-14T10:14:19.056Z,100352.25
2023-05-14T10:16:51.491Z,100350.97
2023-05-14T10:19:20.966Z,100341.41
2023-05-14T10:22:01.808Z,100342.25
2023-05-14T10:24:29.031Z,100336.81
2023-05-14T10:26:56.697Z,100343.41
2023-05-14T10:29:35.833Z,100343.03
2023-05-14T10:32:07.839Z,100353.22
2023-05-14T10:34:43.982Z,100346.16
2023-05-14T10:37:16.493Z,100349.03
2023-05-14T10:39:54.128Z,100346.16
2023-05-14T10:42:30.008Z,100347.00
2023-05-14T10:44:58.918Z,100355.88
2023-05-14T10:47:29.503Z,100357.81
2023-05-14T10:49:58.311Z,100355.31
2023-05-14T10:52:26.377Z,100350.66
2023-05-14T10:54:56.135Z,100349.81
2023-05-14T10:57:25.049Z,100338.25
2023-05-14T10:59:56.768Z,100337.78
2023-05-14T11:02:32.043Z,100341.69
2023-05-14T11:05:05.145Z,100338.41
2023-05-14T11:07:34.626Z,100342.84
2023-05-14T11:10:02.495Z,100337.28
2023-05-14T11:12:31.661Z,100337.28
2023-05-14T11:15:00.827Z,100336.28
2023-05-14T11:17:28.941Z,100324.16
2023-05-14T11:19:56.296Z,100321.88
2023-05-14T11:22:23.383Z,100324.16
2023-05-14T11:24:50.572Z,100323.56
2023-05-14T11:27:17.993Z,100315.28
2023-05-14T11:29:46.371Z,100309.84
2023-05-14T11:32:14.310Z,100310.06
2023-05-14T11:34:42.166Z,100322.25
2023-05-14T11:37:11.373Z,100316.34
2023-05-14T11:39:39.143Z,100313.69
2023-05-14T11:42:12.005Z,100313.75
2023-05-14T11:44:39.099Z,100312.69
2023-05-14T11:47:06.596Z,100316.28
2023-05-14T11:49:35.627Z,100312.31
2023-05-14T11:52:06.659Z,100301.66
2023-05-14T11:54:34.582Z,100314.97
2023-05-14T11:57:09.576Z,100310.00
2023-05-14T11:59:36.488Z,100304.81
2023-05-14T12:02:05.074Z,100300.34
2023-05-14T12:04:32.296Z,100303.63
2023-05-14T12:07:00.422Z,100305.84
2023-05-14T12:09:27.190Z,100296.00
2023-05-14T12:11:53.890Z,100286.53
2023-05-14T12:14:22.436Z,100283.38
2023-05-14T12:16:49.714Z,100285.41
2023-05-14T12:19:18.815Z,100282.69
2023-05-14T12:21:48.192Z,100290.75
2023-05-14T12:24:17.965Z,100282.41
2023-05-14T12:26:45.811Z,100280.84
2023-05-14T12:29:14.166Z,100281.25
2023-05-14T12:31:48.689Z,100283.03
2023-05-14T12:34:16.354Z,100282.03
2023-05-14T12:36:46.173Z,100287.94
2023-05-14T12:39:12.837Z,100278.41
2023-05-14T12:41:40.014Z,100279.84
2023-05-14T12:44:06.755Z,100260.84
2023-05-14T12:46:34.406Z,100261.53
2023-05-14T12:49:01.180Z,100261.16
2023-05-14T12:51:27.925Z,100253.56
2023-05-14T12:53:54.999Z,100252.16
2023-05-14T12:56:27.725Z,100239.97
2023-05-14T12:58:56.427Z,100244.59
2023-05-14T13:01:23.653Z,100240.78
2023-05-14T13:03:51.470Z,100233.22
2023-05-14T13:06:18.478Z,100231.00
2023-05-14T13:08:45.275Z,100220.94
2023-05-14T13:11:11.982Z,100222.69
2023-05-14T13:13:38.627Z,100219.16
2023-05-14T13:16:05.681Z,100229.16
2023-05-14T13:18:32.510Z,100219.09
2023-05-14T13:20:59.194Z,100210.44
2023-05-14T13:23:25.843Z,100209.28
2023-05-14T13:25:52.568Z,100207.94
2023-05-14T13:28:19.219Z,100203.31
2023-05-14T13:31:07.840Z,100198.72
2023-05-14T13:33:42.140Z,100197.81
2023-05-14T13:36:10.440Z,100192.31
2023-05-14T13:38:37.153Z,100184.03
2023-05-14T13:41:04.508Z,100181.22
2023-05-14T13:43:35.402Z,100182.16
2023-05-14T13:46:03.826Z,100176.25
2023-05-14T13:48:31.120Z,100167.19
2023-05-14T13:50:58.066Z,100174.72
2023-05-14T13:53:27.355Z,100177.28
2023-05-14T13:55:58.562Z,100172.75
2023-05-14T13:58:25.962Z,100176.78
2023-05-14T14:00:53.289Z,100179.59
2023-05-14T14:03:20.041Z,100173.53
2023-05-14T14:05:46.650Z,100175.44
2023-05-14T14:10:48.589Z,100164.38
2023-05-14T14:13:23.366Z,100152.78
2023-05-14T14:15:50.333Z,100159.06
2023-05-14T14:18:17.091Z,100157.91
2023-05-14T14:20:43.966Z,100144.31
2023-05-14T14:23:10.696Z,100146.38
2023-05-14T14:25:37.342Z,100141.84
2023-05-14T14:28:04.004Z,100143.06
2023-05-14T14:30:30.710Z,100142.69
2023-05-14T14:32:57.695Z,100141.31
2023-05-14T14:35:24.690Z,100135.63
2023-05-14T14:37:53.714Z,100138.13
2023-05-14T14:40:20.456Z,100138.53
2023-05-14T14:42:47.173Z,100135.75
2023-05-14T14:45:16.650Z,100127.00
2023-05-14T14:47:45.975Z,100134.66
2023-05-14T14:50:15.724Z,100128.66
2023-05-14T14:52:47.947Z,100130.41
2023-05-14T14:55:15.309Z,100125.34
2023-05-14T14:57:47.536Z,100130.63
2023-05-14T15:00:15.268Z,100126.38
2023-05-14T15:02:43.180Z,100128.22
2023-05-14T15:05:10.005Z,100119.56
2023-05-14T15:07:36.653Z,100125.97
2023-05-14T15:10:03.619Z,100117.06
2023-05-14T15:12:32.863Z,100122.03
2023-05-14T15:14:59.469Z,100119.66
2023-05-14T15:17:26.650Z,100116.44
2023-05-14T15:19:53.358Z,100108.16
2023-05-14T15:22:20.063Z,100109.44
2023-05-14T15:24:50.145Z,100102.72
2023-05-14T15:27:16.848Z,100104.09
2023-05-14T15:29:43.453Z,100091.75
2023-05-14T15:32:10.087Z,100093.31
2023-05-14T15:34:36.793Z,100094.38
2023-05-14T15:37:03.465Z,100099.66
2023-05-14T15:39:31.484Z,100092.47
2023-05-14T15:41:58.349Z,100095.09
2023-05-14T15:44:25.019Z,100100.66
2023-05-14T15:46:51.956Z,100097.13
2023-05-14T15:49:18.688Z,100091.13
2023-05-14T15:51:45.476Z,100094.84
2023-05-14T15:54:12.175Z,100093.41
2023-05-14T15:56:38.879Z,100096.91
2023-05-14T15:59:05.580Z,100093.50
2023-05-14T16:01:32.252Z,100097.78
2023-05-14T16:03:59.001Z,100093.22
2023-05-14T16:06:26.032Z,100101.75
2023-05-14T16:08:52.648Z,100095.88
2023-05-14T16:11:19.300Z,100090.97
2023-05-14T16:13:45.985Z,100100.88
2023-05-14T16:16:13.269Z,100096.53
2023-05-14T16:18:43.536Z,100097.63
2023-05-14T16:21:10.229Z,100099.88
2023-05-14T16:23:36.923Z,100093.13
2023-05-14T16:26:03.550Z,100095.75
2023-05-14T16:28:30.514Z,100102.50
2023-05-14T16:30:57.150Z,100092.44
2023-05-14T16:33:23.892Z,100096.34
2023-05-14T16:35:51.366Z,100099.66
2023-05-14T16:38:19.301Z,100097.09
2023-05-14T16:40:45.938Z,100096.50
2023-05-14T16:43:12.803Z,100106.72
2023-05-14T16:45:40.367Z,100097.63
2023-05-14T16:48:07.570Z,100097.91
2023-05-14T16:50:34.306Z,100100.03
2023-05-14T16:53:00.969Z,100105.50
2023-05-14T16:55:27.615Z,100107.03
2023-05-14T16:57:54.306Z,100112.09
2023-05-14T17:00:21.133Z,100106.94
2023-05-14T17:02:49.792Z,100113.66
2023-05-14T17:05:16.678Z,100112.38
2023-05-14T17:07:43.268Z,100109.22
2023-05-14T17:10:10.295Z,100104.91
2023-05-14T17:12:41.798Z,100105.31
2023-05-14T17:15:10.448Z,100100.81
2023-05-14T17:17:40.548Z,100101.06
2023-05-14T17:20:08.304Z,100104.19
2023-05-14T17:22:36.945Z,100089.13
2023-05-14T17:25:06.030Z,100096.41
2023-05-14T17:27:33.421Z,100095.34
2023-05-14T17:30:01.447Z,100094.28
2023-05-14T17:32:29.537Z,100095.81
2023-05-14T17:34:57.892Z,100095.41
2023-05-14T17:37:25.737Z,100101.06
2023-05-14T17:39:54.447Z,100089.31
2023-05-14T17:42:21.333Z,100104.25
2023-05-14T17:44:49.563Z,100090.50
2023-05-14T17:47:20.846Z,100091.03
2023-05-14T17:49:50.655Z,100087.03
2023-05-14T17:52:21.112Z,100097.97
2023-05-14T17:54:47.771Z,100091.69
2023-05-14T17:57:15.290Z,100095.72
2023-05-14T17:59:46.722Z,100091.31
2023-05-14T18:02:14.040Z,100088.16
2023-05-14T18:04:40.730Z,100096.03
2023-05-14T18:07:08.867Z,100091.59
2023-05-14T18:09:36.956Z,100090.63
2023-05-14T18:12:08.365Z,100096.28
2023-05-14T18:14:35.396Z,100091.31
2023-05-14T18:17:03.499Z,100108.41
2023-05-14T18:19:32.475Z,100097.41
2023-05-14T18:22:00.488Z,100101.03
2023-05-14T18:24:27.557Z,100102.94
2023-05-14T18:26:55.022Z,100100.34
2023-05-14T18:29:22.511Z,100102.88
2023-05-14T18:31:49.963Z,100099.00
2023-05-14T18:34:18.256Z,100101.47
2023-05-14T18:36:44.978Z,100102.06
2023-05-14T18:39:11.879Z,100105.78
2023-05-14T18:41:39.644Z,100102.41
2023-05-14T18:44:06.849Z,100105.19
2023-05-14T18:46:35.020Z,100106.28
2023-05-14T18:49:02.912Z,100117.13
2023-05-14T18:51:30.377Z,100110.25
2023-05-14T18:53:59.225Z,100108.31
2023-05-14T18:56:27.473Z,100108.38
2023-05-14T18:58:54.364Z,100113.38
2023-05-14T19:01:25.592Z,100113.41
2023-05-14T19:03:54.666Z,100120.91
2023-05-14T19:06:21.708Z,100127.28
2023-05-14T19:08:48.395Z,100125.59
2023-05-14T19:11:18.085Z,100118.44
2023-05-14T19:13:55.594Z,100130.59
2023-05-14T19:16:30.020Z,100128.38
2023-05-14T19:18:56.858Z,100124.78
2023-05-14T19:21:27.113Z,100125.06
2023-05-14T19:23:57.108Z,100136.13
2023-05-14T19:26:26.178Z,100130.31
2023-05-14T19:28:58.039Z,100137.78
2023-05-14T19:31:25.920Z,100146.06
2023-05-14T19:33:55.340Z,100145.25
2023-05-14T19:36:22.198Z,100139.97
2023-05-14T19:38:49.258Z,100141.91
2023-05-14T19:41:16.271Z,100142.19
2023-05-14T19:43:43.068Z,100155.44
2023-05-14T19:46:09.821Z,100147.97
2023-05-14T19:48:36.523Z,100150.19
2023-05-14T19:51:03.589Z,100153.50
2023-05-14T19:53:31.432Z,100152.91
2023-05-14T19:56:03.667Z,100146.00
2023-05-14T20:01:12.096Z,100144.06
2023-05-14T20:03:39.159Z,100145.34
2023-05-14T20:06:07.128Z,100153.03
2023-05-14T20:08:36.700Z,100154.97
2023-05-14T20:11:04.214Z,100155.25
2023-05-14T20:13:32.065Z,100156.59
2023-05-14T20:15:59.217Z,100158.25
2023-05-14T20:18:26.019Z,100157.44
2023-05-14T20:20:52.877Z,100162.41
2023-05-14T20:23:20.709Z,100154.63
2023-05-14T20:25:47.865Z,100146.91
2023-05-14T20:28:14.598Z,100159.63
2023-05-14T20:30:41.486Z,100156.03
2023-05-14T20:33:08.344Z,100164.34
2023-05-14T20:35:35.221Z,100159.03
2023-05-14T20:38:05.545Z,100160.47
2023-05-14T20:40:32.837Z,100161.22
2023-05-14T20:42:59.579Z,100162.81
2023-05-14T20:45:26.596Z,100170.19
2023-05-14T20:47:53.677Z,100168.78
2023-05-14T20:50:21.565Z,100164.84
2023-05-14T20:52:48.553Z,100162.25
2023-05-14T20:55:15.446Z,100183.56
2023-05-14T20:57:43.546Z,100173.59
2023-05-14T21:00:11.376Z,100175.22
2023-05-14T21:02:38.325Z,100179.94
2023-05-14T21:05:05.588Z,100175.38
2023-05-14T21:07:32.301Z,100192.41
2023-05-14T21:09:59.207Z,100185.44
2023-05-14T21:12:25.838Z,100183.19
2023-05-14T21:14:52.450Z,100186.22
2023-05-14T21:17:19.159Z,100185.34
2023-05-14T21:19:46.000Z,100182.00
2023-05-14T21:22:13.471Z,100189.59
2023-05-14T21:24:40.100Z,100180.22
2023-05-14T21:27:06.703Z,100190.13
2023-05-14T21:29:33.389Z,100186.53
2023-05-14T21:32:00.104Z,100197.16
2023-05-14T21:34:26.882Z,100190.91
2023-05-14T21:36:53.578Z,100188.34
2023-05-14T21:39:20.236Z,100200.97
2023-05-14T21:41:46.985Z,100199.31
2023-05-14T21:44:13.728Z,100201.88
2023-05-14T21:46:40.575Z,100198.25
2023-05-14T21:49:07.188Z,100202.66
2023-05-14T21:51:33.824Z,100208.25
2023-05-14T21:54:00.470Z,100206.88
2023-05-14T21:56:27.327Z,100206.59
2023-05-14T21:58:56.124Z,100206.69
2023-05-14T22:01:23.508Z,100216.63
2023-05-14T22:03:50.314Z,100218.69
2023-05-14T22:06:16.944Z,100213.94
2023-05-14T22:08:43.543Z,100215.59
2023-05-14T22:11:10.247Z,100227.94
2023-05-14T22:13:40.911Z,100222.59
2023-05-14T22:16:13.787Z,100240.28
2023-05-14T22:18:41.131Z,100229.22
2023-05-14T22:21:07.793Z,100231.47
2023-05-14T22:23:34.668Z,100235.88
2023-05-14T22:26:01.325Z,100234.13
2023-05-14T22:28:27.992Z,100233.78
2023-05-14T22:30:55.259Z,100243.69
2023-05-14T22:33:22.501Z,100230.72
2023-05-14T22:35:49.218Z,100242.78
2023-05-14T22:38:15.954Z,100235.28
2023-05-14T22:40:42.596Z,100237.44
2023-05-14T22:43:09.279Z,100228.34
2023-05-14T22:45:36.210Z,100235.41
2023-05-14T22:48:02.920Z,100242.38
2023-05-14T22:50:29.609Z,100245.91
2023-05-14T22:52:56.241Z,100239.34
2023-05-14T22:55:23.088Z,100245.84
2023-05-14T22:57:49.891Z,100239.81
2023-05-14T23:00:16.896Z,100240.56
2023-05-14T23:02:43.657Z,100242.00
2023-05-14T23:05:10.591Z,100247.84
2023-05-14T23:07:37.473Z,100246.72
2023-05-14T23:10:04.342Z,100247.22
2023-05-14T23:12:30.969Z,100243.88
2023-05-14T23:14:59.138Z,100236.09
2023-05-14T23:17:26.029Z,100245.22
2023-05-14T23:19:52.877Z,100240.19
2023-05-14T23:22:19.591Z,100247.22
2023-05-14T23:24:46.186Z,100247.34
2023-05-14T23:27:13.028Z,100253.00
2023-05-14T23:29:39.727Z,100254.31
2023-05-14T23:32:07.195Z,100249.84
2023-05-14T23:34:34.690Z,100255.28
2023-05-14T23:37:01.516Z,100253.63
2023-05-14T23:39:28.227Z,100259.06
2023-05-14T23:41:54.815Z,100246.34
2023-05-14T23:44:21.734Z,100239.94
2023-05-14T23:46:48.579Z,100241.50
2023-05-14T23:49:15.371Z,100241.03
2023-05-14T23:51:42.189Z,100242.16
2023-05-14T23:54:08.810Z,100243.69
2023-05-14T23:56:36.078Z,100243.84
2023-05-14T23:59:03.689Z,100246.06
